createdAt,value
2018-01-04T00:00:32.665Z,8.70
2018-01-04T00:03:05.947Z,8.70
2018-01-04T00:05:37.160Z,8.70
2018-01-04T00:08:12.109Z,8.70
2018-01-04T00:10:44.407Z,8.70
2018-01-04T00:13:19.170Z,8.70
2018-01-04T00:15:52.825Z,8.70
2018-01-04T00:18:27.283Z,8.70
2018-01-04T00:20:58.425Z,8.70
2018-01-04T00:23:31.018Z,8.60
2018-01-04T00:26:02.987Z,8.70
2018-01-04T00:28:34.457Z,8.60
2018-01-04T00:31:04.958Z,8.60
2018-01-04T00:33:42.640Z,8.60
2018-01-04T00:36:25.588Z,8.60
2018-01-04T00:39:04.488Z,8.60
2018-01-04T00:42:49.310Z,8.60
2018-01-04T00:45:22.126Z,8.60
2018-01-04T00:51:12.724Z,8.70
2018-01-04T00:56:59.073Z,8.70
2018-01-04T01:02:26.609Z,8.70
2018-01-04T01:05:04.349Z,8.70
2018-01-04T01:07:46.278Z,8.70
2018-01-04T01:10:21.273Z,8.70
2018-01-04T01:12:52.110Z,8.70
2018-01-04T01:15:23.093Z,8.70
2018-01-04T01:17:53.696Z,8.70
2018-01-04T01:20:25.387Z,8.70
2018-01-04T01:22:55.628Z,8.70
2018-01-04T01:25:26.905Z,8.70
2018-01-04T01:27:57.277Z,8.70
2018-01-04T01:30:27.360Z,8.70
2018-01-04T01:32:57.863Z,8.60
2018-01-04T01:35:29.753Z,8.60
2018-01-04T01:38:00.165Z,8.60
2018-01-04T01:40:32.138Z,8.60
2018-01-04T01:43:02.564Z,8.60
2018-01-04T01:45:32.585Z,8.70
2018-01-04T01:48:03.470Z,8.60
2018-01-04T01:50:35.632Z,8.60
2018-01-04T01:53:05.555Z,8.60
2018-01-04T01:55:35.891Z,8.60
2018-01-04T01:58:07.283Z,8.60
2018-01-04T02:00:40.096Z,8.60
2018-01-04T02:03:12.683Z,8.60
2018-01-04T02:05:43.695Z,8.60
2018-01-04T02:08:14.619Z,8.60
2018-01-04T02:10:45.451Z,8.60
2018-01-04T02:13:16.431Z,8.60
2018-01-04T02:15:46.981Z,8.60
2018-01-04T02:18:26.996Z,8.60
2018-01-04T02:23:13.005Z,8.60
2018-01-04T02:25:51.841Z,8.60
2018-01-04T02:28:33.298Z,8.60
2018-01-04T02:34:20.523Z,8.60
2018-01-04T02:39:01.564Z,8.60
2018-01-04T02:41:40.157Z,8.70
2018-01-04T02:44:18.695Z,8.70
2018-01-04T02:46:48.827Z,8.60
2018-01-04T02:49:19.394Z,8.60
2018-01-04T02:51:50.814Z,8.60
2018-01-04T02:54:21.604Z,8.60
2018-01-04T02:56:51.437Z,8.60
2018-01-04T02:59:24.405Z,8.60
2018-01-04T03:01:56.788Z,8.60
2018-01-04T03:04:30.095Z,8.50
2018-01-04T03:07:02.120Z,8.50
2018-01-04T03:09:32.626Z,8.50
2018-01-04T03:12:03.746Z,8.40
2018-01-04T03:14:33.958Z,8.40
2018-01-04T03:17:04.565Z,8.50
2018-01-04T03:19:36.042Z,8.50
2018-01-04T03:22:10.474Z,8.50
2018-01-04T03:24:45.400Z,8.50
2018-01-04T03:29:22.419Z,8.50
2018-01-04T03:33:59.347Z,8.50
2018-01-04T03:38:42.097Z,8.50
2018-01-04T03:41:15.993Z,8.50
2018-01-04T03:45:52.368Z,8.50
2018-01-04T03:48:28.879Z,8.50
2018-01-04T03:53:08.407Z,8.50
2018-01-04T03:56:42.789Z,8.50
2018-01-04T03:59:17.873Z,8.50
2018-01-04T04:02:50.422Z,8.50
2018-01-04T04:05:24.592Z,8.60
2018-01-04T04:07:55.735Z,8.60
2018-01-04T04:13:05.907Z,8.50
2018-01-04T04:15:38.368Z,8.60
2018-01-04T04:18:14.757Z,8.50
2018-01-04T04:20:47.139Z,8.50
2018-01-04T04:23:21.237Z,8.50
2018-01-04T04:25:53.405Z,8.50
2018-01-04T04:28:29.190Z,8.60
2018-01-04T04:30:59.146Z,8.60
2018-01-04T04:33:30.406Z,8.60
2018-01-04T04:36:01.382Z,8.50
2018-01-04T04:38:31.321Z,8.50
2018-01-04T04:41:01.240Z,8.60
2018-01-04T04:43:31.136Z,8.60
2018-01-04T04:46:01.093Z,8.60
2018-01-04T04:48:31.854Z,8.70
2018-01-04T04:51:02.376Z,8.70
2018-01-04T04:53:32.737Z,8.70
2018-01-04T04:56:02.434Z,8.70
2018-01-04T04:58:32.262Z,8.70
2018-01-04T05:01:02.167Z,8.70
2018-01-04T05:03:32.128Z,8.70
2018-01-04T05:06:03.182Z,8.70
2018-01-04T05:08:33.443Z,8.70
2018-01-04T05:11:03.672Z,8.70
2018-01-04T05:13:33.596Z,8.70
2018-01-04T05:16:03.861Z,8.60
2018-01-04T05:18:33.636Z,8.60
2018-01-04T05:21:03.777Z,8.60
2018-01-04T05:23:34.382Z,8.70
2018-01-04T05:26:04.469Z,8.70
2018-01-04T05:28:35.238Z,8.80
2018-01-04T05:31:05.571Z,8.70
2018-01-04T05:33:35.753Z,8.80
2018-01-04T05:36:05.611Z,8.70
2018-01-04T05:38:36.350Z,8.70
2018-01-04T05:41:06.514Z,8.60
2018-01-04T05:43:38.597Z,8.60
2018-01-04T05:46:09.332Z,8.60
2018-01-04T05:48:39.483Z,8.50
2018-01-04T05:51:09.757Z,8.50
2018-01-04T05:53:40.228Z,8.50
2018-01-04T05:56:10.341Z,8.60
2018-01-04T05:58:40.746Z,8.50
2018-01-04T06:01:10.576Z,8.60
2018-01-04T06:03:41.103Z,8.50
2018-01-04T06:06:11.418Z,8.50
2018-01-04T06:08:41.874Z,8.50
2018-01-04T06:11:13.264Z,8.50
2018-01-04T06:13:43.360Z,8.50
2018-01-04T06:16:14.618Z,8.50
2018-01-04T06:18:45.059Z,8.50
2018-01-04T06:21:15.376Z,8.50
2018-01-04T06:23:51.840Z,8.50
2018-01-04T06:26:21.686Z,8.60
2018-01-04T06:28:53.194Z,8.50
2018-01-04T06:31:22.944Z,8.50
2018-01-04T06:33:53.822Z,8.50
2018-01-04T06:36:24.125Z,8.50
2018-01-04T06:38:55.880Z,8.50
2018-01-04T06:41:26.400Z,8.50
2018-01-04T06:43:56.550Z,8.50
2018-01-04T06:46:27.606Z,8.40
2018-01-04T06:48:57.587Z,8.40
2018-01-04T06:51:27.621Z,8.40
2018-01-04T06:54:00.600Z,8.40
2018-01-04T06:56:31.859Z,8.40
2018-01-04T06:59:01.917Z,8.40
2018-01-04T07:01:31.946Z,8.40
2018-01-04T07:04:06.281Z,8.40
2018-01-04T07:06:39.636Z,8.40
2018-01-04T07:09:14.643Z,8.40
2018-01-04T07:11:47.451Z,8.40
2018-01-04T07:14:31.085Z,8.40
2018-01-04T07:17:27.824Z,8.30
2018-01-04T07:20:00.312Z,8.40
2018-01-04T07:22:35.565Z,8.30
2018-01-04T07:25:08.162Z,8.30
2018-01-04T07:27:44.666Z,8.40
2018-01-04T07:30:16.440Z,8.40
2018-01-04T07:35:54.370Z,8.40
2018-01-04T07:38:31.331Z,8.40
2018-01-04T07:44:16.751Z,8.40
2018-01-04T07:46:48.196Z,8.40
2018-01-04T07:49:23.162Z,8.40
2018-01-04T07:52:04.231Z,8.50
2018-01-04T07:57:35.352Z,8.50
2018-01-04T08:00:06.822Z,8.60
2018-01-04T08:02:45.325Z,8.60
2018-01-04T08:05:17.877Z,8.70
2018-01-04T08:07:48.093Z,8.70
2018-01-04T08:10:20.383Z,8.70
2018-01-04T08:12:51.738Z,8.70
2018-01-04T08:15:25.554Z,8.70
2018-01-04T08:17:57.162Z,8.70
2018-01-04T08:20:31.888Z,8.70
2018-01-04T08:23:02.644Z,8.80
2018-01-04T08:25:34.613Z,8.80
2018-01-04T08:28:06.133Z,8.70
2018-01-04T08:30:49.098Z,8.70
2018-01-04T08:33:24.571Z,8.70
2018-01-04T08:35:55.429Z,8.70
2018-01-04T08:38:27.745Z,8.80
2018-01-04T08:43:53.224Z,8.70
2018-01-04T08:46:28.955Z,8.70
2018-01-04T08:48:59.376Z,8.80
2018-01-04T08:54:17.668Z,8.50
2018-01-04T08:56:55.468Z,8.40
2018-01-04T08:59:26.871Z,8.30
2018-01-04T09:01:57.302Z,8.20
2018-01-04T09:04:58.302Z,8.10
2018-01-04T09:07:33.403Z,8.00
2018-01-04T09:10:39.193Z,8.00
2018-01-04T09:13:35.753Z,7.90
2018-01-04T09:16:28.256Z,7.80
2018-01-04T09:24:56.132Z,7.60
2018-01-04T09:27:32.490Z,7.60
2018-01-04T09:30:06.596Z,7.60
2018-01-04T09:32:38.635Z,7.60
2018-01-04T09:35:10.615Z,7.60
2018-01-04T09:37:43.117Z,7.50
2018-01-04T09:40:15.205Z,7.50
2018-01-04T09:42:48.522Z,7.50
2018-01-04T09:45:19.705Z,7.50
2018-01-04T09:47:49.963Z,7.40
2018-01-04T09:53:02.438Z,7.50
2018-01-04T09:55:46.523Z,7.40
2018-01-04T09:58:21.219Z,7.50
2018-01-04T10:01:04.526Z,7.50
2018-01-04T10:03:39.170Z,7.50
2018-01-04T10:06:11.056Z,7.50
2018-01-04T10:08:48.553Z,7.60
2018-01-04T10:11:27.733Z,7.60
2018-01-04T10:13:59.850Z,7.60
2018-01-04T10:16:35.713Z,7.60
2018-01-04T10:19:17.650Z,7.70
2018-01-04T10:21:52.117Z,7.80
2018-01-04T10:24:26.549Z,7.80
2018-01-04T10:29:49.811Z,7.80
2018-01-04T10:33:02.320Z,7.80
2018-01-04T10:35:43.448Z,7.90
2018-01-04T10:38:14.944Z,7.90
2018-01-04T10:40:46.066Z,8.00
2018-01-04T10:43:27.384Z,8.00
2018-01-04T10:46:01.327Z,8.00
2018-01-04T10:48:40.722Z,8.00
2018-01-04T10:51:11.966Z,8.10
2018-01-04T10:53:57.936Z,8.10
2018-01-04T10:56:32.253Z,8.00
2018-01-04T10:59:04.522Z,8.00
2018-01-04T11:01:51.958Z,8.00
2018-01-04T11:04:23.813Z,8.10
2018-01-04T11:06:58.278Z,8.00
2018-01-04T11:09:35.626Z,8.00
2018-01-04T11:12:07.918Z,8.10
2018-01-04T11:14:45.202Z,8.20
2018-01-04T11:17:19.250Z,8.20
2018-01-04T11:20:01.302Z,8.30
2018-01-04T11:22:38.036Z,8.20
2018-01-04T11:25:10.577Z,8.20
2018-01-04T11:27:45.190Z,8.20
2018-01-04T11:30:36.619Z,8.20
2018-01-04T11:33:07.392Z,8.20
2018-01-04T11:35:40.683Z,8.20
2018-01-04T11:38:15.465Z,8.30
2018-01-04T11:40:55.196Z,8.30
2018-01-04T11:43:38.443Z,8.40
2018-01-04T11:46:10.409Z,8.40
2018-01-04T11:48:49.921Z,8.40
2018-01-04T11:51:29.501Z,8.30
2018-01-04T11:54:15.459Z,8.30
2018-01-04T11:57:12.033Z,8.40
2018-01-04T12:02:54.433Z,8.40
2018-01-04T12:05:32.402Z,8.40
2018-01-04T12:08:21.455Z,8.40
2018-01-04T12:11:01.130Z,8.40
2018-01-04T12:13:32.074Z,8.40
2018-01-04T12:16:05.286Z,8.50
2018-01-04T12:18:53.551Z,8.60
2018-01-04T12:21:40.255Z,8.60
2018-01-04T12:24:23.025Z,8.50
2018-01-04T12:27:18.185Z,8.40
2018-01-04T12:30:23.209Z,8.40
2018-01-04T12:32:54.419Z,8.30
2018-01-04T12:35:25.815Z,8.30
2018-01-04T12:37:57.850Z,8.20
2018-01-04T12:40:30.578Z,8.20
2018-01-04T12:46:30.812Z,8.20
2018-01-04T12:49:02.877Z,8.20
2018-01-04T12:51:33.739Z,8.10
2018-01-04T12:54:04.749Z,8.10
2018-01-04T12:56:35.958Z,8.10
2018-01-04T12:59:07.218Z,8.10
2018-01-04T13:01:38.902Z,8.10
2018-01-04T13:04:09.426Z,8.10
2018-01-04T13:06:40.080Z,8.10
2018-01-04T13:09:28.559Z,8.10
2018-01-04T13:11:59.475Z,8.10
2018-01-04T13:14:47.565Z,8.10
2018-01-04T13:17:20.156Z,8.10
2018-01-04T13:19:52.370Z,8.10
2018-01-04T13:22:23.472Z,8.20
2018-01-04T13:24:53.276Z,8.10
2018-01-04T13:27:29.199Z,8.20
2018-01-04T13:30:02.915Z,8.20
2018-01-04T13:32:33.915Z,8.20
2018-01-04T13:35:04.973Z,8.10
2018-01-04T13:37:35.093Z,8.10
2018-01-04T13:40:10.272Z,8.00
2018-01-04T13:42:44.449Z,8.00
2018-01-04T13:45:20.065Z,8.10
2018-01-04T13:47:52.979Z,8.10
2018-01-04T13:50:30.448Z,8.10
2018-01-04T13:53:08.342Z,8.10
2018-01-04T13:55:39.421Z,8.10
2018-01-04T13:58:13.952Z,8.20
2018-01-04T14:00:45.151Z,8.20
2018-01-04T14:03:16.098Z,8.20
2018-01-04T14:05:46.647Z,8.20
2018-01-04T14:08:18.572Z,8.20
2018-01-04T14:11:04.840Z,8.20
2018-01-04T14:13:38.910Z,8.30
2018-01-04T14:16:14.042Z,8.30
2018-01-04T14:18:44.093Z,8.40
2018-01-04T14:21:14.309Z,8.40
2018-01-04T14:23:44.103Z,8.40
2018-01-04T14:26:14.388Z,8.50
2018-01-04T14:28:45.321Z,8.60
2018-01-04T14:31:16.881Z,8.60
2018-01-04T14:33:47.143Z,8.60
2018-01-04T14:36:19.409Z,8.70
2018-01-04T14:38:50.719Z,8.80
2018-01-04T14:41:21.077Z,8.80
2018-01-04T14:43:52.603Z,8.90
2018-01-04T14:46:23.372Z,8.90
2018-01-04T14:48:58.012Z,9.10
2018-01-04T14:51:31.042Z,9.10
2018-01-04T14:56:43.537Z,9.20
2018-01-04T14:59:16.404Z,9.30
2018-01-04T15:01:48.044Z,9.30
2018-01-04T15:04:21.574Z,9.40
2018-01-04T15:06:55.435Z,9.50
2018-01-04T15:09:31.299Z,9.50
2018-01-04T15:12:04.679Z,9.60
2018-01-04T15:14:41.874Z,9.80
2018-01-04T15:17:18.240Z,9.80
2018-01-04T15:21:06.147Z,9.80
2018-01-04T15:23:55.427Z,9.80
2018-01-04T15:29:21.627Z,10.40
2018-01-04T15:32:04.436Z,10.60
2018-01-04T15:34:37.795Z,10.60
2018-01-04T15:37:09.070Z,10.70
2018-01-04T15:39:40.778Z,10.80
2018-01-04T15:42:15.099Z,10.80
2018-01-04T15:44:49.742Z,10.90
2018-01-04T15:47:21.345Z,11.00
2018-01-04T15:50:11.416Z,11.00
2018-01-04T15:53:05.858Z,11.00
2018-01-04T15:55:51.373Z,11.10
2018-01-04T15:58:34.257Z,11.20
2018-01-04T16:01:13.560Z,11.20
2018-01-04T16:03:46.881Z,11.30
2018-01-04T16:06:25.225Z,11.30
2018-01-04T16:10:18.981Z,11.40
2018-01-04T16:15:37.192Z,11.50
2018-01-04T16:18:14.855Z,11.50
2018-01-04T16:20:45.424Z,11.50
2018-01-04T16:23:19.613Z,11.50
2018-01-04T16:25:54.156Z,11.60
2018-01-04T16:28:26.467Z,11.70
2018-01-04T16:30:57.822Z,11.80
2018-01-04T16:33:28.653Z,11.80
2018-01-04T16:36:07.859Z,11.80
2018-01-04T16:38:41.594Z,11.90
2018-01-04T16:41:17.548Z,11.90
2018-01-04T16:43:54.850Z,12.00
2018-01-04T16:46:33.703Z,12.00
2018-01-04T16:49:16.203Z,12.00
2018-01-04T16:51:52.374Z,12.10
2018-01-04T16:54:23.459Z,12.10
2018-01-04T16:56:59.285Z,12.10
2018-01-04T16:59:31.036Z,12.10
2018-01-04T17:02:01.702Z,12.10
2018-01-04T17:04:35.023Z,12.10
2018-01-04T17:07:11.407Z,12.20
2018-01-04T17:09:59.270Z,12.20
2018-01-04T17:12:37.014Z,12.20
2018-01-04T17:15:13.033Z,12.20
2018-01-04T17:17:52.449Z,12.10
2018-01-04T17:26:52.219Z,12.00
2018-01-04T17:29:42.284Z,12.10
2018-01-04T17:32:30.346Z,12.10
2018-01-04T17:35:05.665Z,12.10
2018-01-04T17:37:36.689Z,12.00
2018-01-04T17:40:40.013Z,12.00
2018-01-04T17:46:30.757Z,12.00
2018-01-04T17:53:12.754Z,12.00
2018-01-04T17:55:48.553Z,12.10
2018-01-04T17:58:23.540Z,12.20
2018-01-04T18:00:56.300Z,12.20
2018-01-04T18:03:28.588Z,12.20
2018-01-04T18:06:06.908Z,12.20
2018-01-04T18:08:46.610Z,12.20
2018-01-04T18:11:19.226Z,12.10
2018-01-04T18:13:49.427Z,12.10
2018-01-04T18:16:22.228Z,12.10
2018-01-04T18:18:55.150Z,12.10
2018-01-04T18:24:06.302Z,12.00
2018-01-04T18:26:45.480Z,12.00
2018-01-04T18:29:24.383Z,11.90
2018-01-04T18:32:01.074Z,11.90
2018-01-04T18:34:36.529Z,12.00
2018-01-04T18:37:43.204Z,12.00
2018-01-04T18:40:23.976Z,12.00
2018-01-04T18:42:59.944Z,11.90
2018-01-04T18:49:07.534Z,12.00
2018-01-04T18:54:45.362Z,12.00
2018-01-04T18:57:55.086Z,12.00
2018-01-04T19:00:27.631Z,12.00
2018-01-04T19:02:59.220Z,11.80
2018-01-04T19:05:32.669Z,11.80
2018-01-04T19:08:10.740Z,11.80
2018-01-04T19:10:48.937Z,11.80
2018-01-04T19:13:21.469Z,11.90
2018-01-04T19:15:59.360Z,11.90
2018-01-04T19:18:54.179Z,11.80
2018-01-04T19:21:34.120Z,11.90
2018-01-04T19:24:06.444Z,11.80
2018-01-04T19:26:39.144Z,11.80
2018-01-04T19:29:10.359Z,11.80
2018-01-04T19:31:55.853Z,11.70
2018-01-04T19:34:32.581Z,11.80
2018-01-04T19:37:11.260Z,11.70
2018-01-04T19:39:44.341Z,11.70
2018-01-04T19:42:18.582Z,11.70
2018-01-04T19:44:54.130Z,11.70
2018-01-04T19:47:26.130Z,11.70
2018-01-04T19:50:02.855Z,11.70
2018-01-04T19:52:37.463Z,11.70
2018-01-04T19:55:14.135Z,11.50
2018-01-04T19:57:46.548Z,11.50
2018-01-04T20:00:19.040Z,11.40
2018-01-04T20:02:57.513Z,11.40
2018-01-04T20:05:43.913Z,11.40
2018-01-04T20:08:24.935Z,11.30
2018-01-04T20:10:57.577Z,11.30
2018-01-04T20:13:49.772Z,11.40
2018-01-04T20:16:21.731Z,11.40
2018-01-04T20:19:29.020Z,11.20
2018-01-04T20:22:12.653Z,11.20
2018-01-04T20:24:49.807Z,11.20
2018-01-04T20:27:20.993Z,11.00
2018-01-04T20:29:52.300Z,11.00
2018-01-04T20:32:24.683Z,11.00
2018-01-04T20:34:56.307Z,11.00
2018-01-04T20:37:27.878Z,10.90
2018-01-04T20:40:06.541Z,10.80
2018-01-04T20:42:39.112Z,10.90
2018-01-04T20:45:11.032Z,10.80
2018-01-04T20:54:46.080Z,10.80
2018-01-04T20:57:43.482Z,10.80
2018-01-04T21:00:15.536Z,10.70
2018-01-04T21:02:47.669Z,10.60
2018-01-04T21:05:18.954Z,10.60
2018-01-04T21:07:51.699Z,10.60
2018-01-04T21:10:23.051Z,10.60
2018-01-04T21:12:54.492Z,10.60
2018-01-04T21:15:24.831Z,10.70
2018-01-04T21:17:58.975Z,10.70
2018-01-04T21:20:31.428Z,10.80
2018-01-04T21:23:02.320Z,10.70
2018-01-04T21:25:39.332Z,10.60
2018-01-04T21:28:11.983Z,10.70
2018-01-04T21:30:56.187Z,10.70
2018-01-04T21:33:26.984Z,10.70
2018-01-04T21:35:59.677Z,10.60
2018-01-04T21:38:52.474Z,10.50
2018-01-04T21:41:46.618Z,10.50
2018-01-04T21:44:34.645Z,10.40
2018-01-04T21:47:14.297Z,10.40
2018-01-04T21:49:58.063Z,10.30
2018-01-04T21:52:35.145Z,10.30
2018-01-04T21:55:06.461Z,10.30
2018-01-04T21:57:41.512Z,10.20
2018-01-04T22:00:16.921Z,10.20
2018-01-04T22:02:47.628Z,10.20
2018-01-04T22:05:19.123Z,10.10
2018-01-04T22:08:17.406Z,10.10
2018-01-04T22:10:50.440Z,10.10
2018-01-04T22:13:21.468Z,10.00
2018-01-04T22:16:02.636Z,10.00
2018-01-04T22:19:09.262Z,10.00
2018-01-04T22:21:48.785Z,9.90
2018-01-04T22:24:20.298Z,9.90
2018-01-04T22:26:53.383Z,9.90
2018-01-04T22:29:29.019Z,9.90
2018-01-04T22:32:02.549Z,9.90
2018-01-04T22:34:33.385Z,9.80
2018-01-04T22:37:10.535Z,9.70
2018-01-04T22:39:47.564Z,9.70
2018-01-04T22:42:26.994Z,9.60
2018-01-04T22:45:03.782Z,9.60
2018-01-04T22:47:43.415Z,9.60
2018-01-04T22:50:20.564Z,9.50
2018-01-04T22:52:56.307Z,9.50
2018-01-04T22:55:28.863Z,9.50
2018-01-04T22:58:02.205Z,9.50
2018-01-04T23:00:35.580Z,9.40
2018-01-04T23:03:08.735Z,9.40
2018-01-04T23:05:51.848Z,9.50
2018-01-04T23:08:26.478Z,9.30
2018-01-04T23:10:58.379Z,9.30
2018-01-04T23:13:29.105Z,9.30
2018-01-04T23:16:03.389Z,9.30
2018-01-04T23:18:46.405Z,9.20
2018-01-04T23:21:18.374Z,9.30
2018-01-04T23:23:52.110Z,9.20
2018-01-04T23:26:22.994Z,9.20
2018-01-04T23:28:55.841Z,9.20
2018-01-04T23:31:38.796Z,9.20
2018-01-04T23:34:22.578Z,9.20
2018-01-04T23:37:17.803Z,9.20
2018-01-04T23:39:55.309Z,9.20
2018-01-04T23:42:33.969Z,9.20
2018-01-04T23:45:12.554Z,9.20
2018-01-04T23:47:43.522Z,9.10
2018-01-04T23:50:14.569Z,9.10
2018-01-04T23:52:45.821Z,9.10
2018-01-04T23:55:17.533Z,9.10
2018-01-04T23:57:48.132Z,9.10
